Time;durP1;ratioP1;P1;durP2;ratioP2;P2;SDS_P1;SDS_P2;PMS_P1;PMS_P2;Temp;Humidity;BMP_temperature;BMP_pressure;BME280_temperature;BME280_humidity;BME280_pressure;Samples;Min_cycle;Max_cycle;Signal;HPM_P1;HPM_P2
2023/05/28 00:02:25;;;;;;;6.83;3.10;;;;;;;5.62;82.79;97853.91;6212627;28;20708;-90
2023/05/28 00:05:27;;;;;;;6.47;3.60;;;;;;;6.25;82.66;97932.72;6212213;28;20236;-90
2023/05/28 00:08:29;;;;;;;7.77;3.27;;;;;;;6.70;82.60;98035.00;6203263;28;20235;-90
2023/05/28 00:11:32;;;;;;;8.70;3.10;;;;;;;6.16;82.59;97906.50;6194630;28;20228;-90
2023/05/28 00:14:34;;;;;;;6.60;3.20;;;;;;;5.25;82.48;97769.00;6219456;28;20279;-90
2023/05/28 00:17:37;;;;;;;6.10;3.13;;;;;;;5.85;82.48;97896.56;6232513;28;20247;-90
2023/05/28 00:20:40;;;;;;;6.57;2.80;;;;;;;6.31;82.79;97961.00;6210843;28;20726;-89
2023/05/28 00:23:42;;;;;;;4.50;2.90;;;;;;;6.65;82.46;98002.22;6215276;28;20223;-90
2023/05/28 00:26:45;;;;;;;4.87;2.70;;;;;;;5.34;82.58;97791.56;6205746;28;20314;-91
2023/05/28 00:29:47;;;;;;;6.77;2.97;;;;;;;4.85;82.37;97700.41;6218204;28;20653;-90
2023/05/28 00:32:49;;;;;;;4.77;3.50;;;;;;;5.70;82.94;97858.97;6194409;28;20239;-89
2023/05/28 00:35:55;;;;;;;6.13;3.17;;;;;;;5.10;83.26;97755.22;6216885;28;20236;-90
2023/05/28 00:39:04;;;;;;;6.30;3.17;;;;;;;5.57;83.00;97870.38;6189143;28;20232;-90
2023/05/28 00:42:10;;;;;;;5.43;3.30;;;;;;;5.81;83.23;97905.09;6214447;28;20222;-91
2023/05/28 00:45:13;;;;;;;7.63;3.00;;;;;;;5.05;83.40;97766.38;6228245;28;20215;-89
2023/05/28 00:48:16;;;;;;;7.80;3.23;;;;;;;6.53;83.68;97994.13;6207877;28;20303;-90
2023/05/28 00:51:19;;;;;;;5.43;2.90;;;;;;;5.14;83.75;97822.44;6190104;28;20241;-90
2023/05/28 00:54:23;;;;;;;11.43;5.17;;;;;;;5.41;83.42;97865.50;6202787;28;20314;-90
2023/05/28 00:57:26;;;;;;;6.10;3.50;;;;;;;5.65;83.81;97903.69;6200442;28;20703;-90
2023/05/28 01:00:29;;;;;;;7.97;3.27;;;;;;;5.51;83.90;97886.22;6208847;28;20670;-90
2023/05/28 01:03:38;;;;;;;6.43;3.40;;;;;;;6.69;84.23;98020.13;6192153;28;20778;-89
2023/05/28 01:06:43;;;;;;;5.50;3.33;;;;;;;4.87;83.82;97763.53;6213827;28;20228;-90
2023/05/28 01:09:46;;;;;;;3.70;2.67;;;;;;;4.68;83.70;97715.06;6179443;28;20324;-89
2023/05/28 01:12:52;;;;;;;6.67;2.83;;;;;;;6.36;83.70;97995.59;6173665;28;20742;-90
2023/05/28 01:15:55;;;;;;;6.67;3.60;;;;;;;5.64;83.67;97867.72;6203783;28;20645;-90
2023/05/28 01:18:59;;;;;;;4.97;2.87;;;;;;;4.89;84.04;97746.50;6199869;28;20305;-90
2023/05/28 01:22:04;;;;;;;6.97;3.13;;;;;;;4.52;84.66;97696.97;6213420;28;20436;-89
2023/05/28 01:25:09;;;;;;;4.40;2.70;;;;;;;6.50;84.54;98026.28;6179153;28;20566;-90
2023/05/28 01:28:12;;;;;;;8.17;3.20;;;;;;;4.91;84.53;97778.78;6212226;28;20323;-90
2023/05/28 01:31:16;;;;;;;4.93;2.80;;;;;;;5.97;84.53;97940.94;6178632;28;20256;-90
2023/05/28 01:34:19;;;;;;;4.10;2.67;;;;;;;2.90;84.29;97481.88;6196464;28;20306;-90
2023/05/28 01:37:21;;;;;;;4.57;2.70;;;;;;;4.35;84.65;97675.47;6211561;28;20738;-90
2023/05/28 01:40:25;;;;;;;9.53;2.83;;;;;;;4.24;83.90;97686.63;6195955;28;20237;-90
2023/05/28 01:43:28;;;;;;;3.80;2.47;;;;;;;6.49;84.86;98024.66;6181631;28;20255;-90
2023/05/28 01:46:31;;;;;;;6.03;3.03;;;;;;;5.32;84.87;97861.44;6205324;28;20221;-90
2023/05/28 01:49:33;;;;;;;8.97;3.33;;;;;;;6.37;84.93;98019.19;6225765;28;20236;-90
2023/05/28 01:52:36;;;;;;;7.50;2.67;;;;;;;5.52;84.72;97901.09;6215215;28;20232;-90
2023/05/28 01:55:38;;;;;;;4.80;3.03;;;;;;;4.99;85.31;97795.44;6191254;28;20758;-90
2023/05/28 01:58:41;;;;;;;4.53;2.47;;;;;;;5.05;85.30;97803.34;6203006;28;20798;-90
2023/05/28 02:01:44;;;;;;;7.00;3.07;;;;;;;3.10;84.65;97485.41;6196619;28;20716;-90
2023/05/28 02:04:48;;;;;;;9.03;3.40;;;;;;;5.35;85.46;97868.97;6195388;28;20422;-90
2023/05/28 02:07:50;;;;;;;7.00;2.90;;;;;;;4.74;85.55;97805.78;6208884;28;20316;-90
2023/05/28 02:10:52;;;;;;;7.03;2.80;;;;;;;5.26;85.53;97904.50;6220500;28;20250;-89
2023/05/28 02:13:57;;;;;;;4.57;2.80;;;;;;;4.25;85.77;97741.78;6218514;28;20229;-90
2023/05/28 02:17:01;;;;;;;5.53;2.60;;;;;;;6.13;86.14;98020.66;6202251;28;20235;-90
2023/05/28 02:20:05;;;;;;;6.30;3.13;;;;;;;4.26;85.68;97703.84;6218869;28;20718;-90
2023/05/28 02:23:08;;;;;;;5.30;2.93;;;;;;;5.43;85.99;97908.41;6222218;28;20599;-89
2023/05/28 02:26:11;;;;;;;7.13;2.50;;;;;;;6.14;86.20;98006.41;6199611;28;20231;-90
2023/05/28 02:29:13;;;;;;;6.27;3.47;;;;;;;5.09;85.92;97875.06;6188986;28;20231;-90
2023/05/28 02:32:16;;;;;;;5.67;2.90;;;;;;;5.02;86.13;97876.84;6201267;28;20246;-89
2023/05/28 02:35:21;;;;;;;4.77;3.00;;;;;;;4.77;86.21;97851.03;6199612;28;20713;-90
2023/05/28 02:38:24;;;;;;;3.87;2.90;;;;;;;3.61;86.54;97676.31;6183669;28;20314;-89
2023/05/28 02:41:27;;;;;;;5.60;2.77;;;;;;;4.42;86.37;97816.06;6185825;28;20363;-89
2023/05/28 02:44:31;;;;;;;8.37;2.93;;;;;;;3.99;86.59;97729.34;6214900;28;20235;-89
2023/05/28 02:47:34;;;;;;;4.97;2.67;;;;;;;5.56;86.96;98000.06;6201075;28;20235;-90
2023/05/28 02:50:37;;;;;;;4.10;2.70;;;;;;;4.95;86.76;97881.34;6210216;28;20644;-90
2023/05/28 02:53:59;;;;;;;5.83;2.20;;;;;;;4.86;86.54;97863.03;6208780;28;20252;-89
2023/05/28 02:57:02;;;;;;;5.00;3.03;;;;;;;4.81;86.59;97877.84;6180210;28;20223;-90
2023/05/28 03:00:04;;;;;;;5.87;2.93;;;;;;;3.51;86.94;97642.44;6216031;28;20264;-89
2023/05/28 03:03:08;;;;;;;7.00;3.33;;;;;;;4.08;86.95;97780.06;6213465;28;20375;-90
2023/05/28 03:06:13;;;;;;;4.47;3.13;;;;;;;4.43;87.15;97806.31;6213458;28;20289;-89
2023/05/28 03:09:27;;;;;;;6.67;3.17;;;;;;;3.98;87.30;97761.97;6208128;28;20606;-90
2023/05/28 03:12:29;;;;;;;3.77;2.77;;;;;;;4.18;86.65;97806.84;6229041;28;20245;-90
2023/05/28 03:15:32;;;;;;;5.17;2.40;;;;;;;3.87;87.34;97734.38;6213114;28;20760;-90
2023/05/28 03:18:36;;;;;;;5.13;2.93;;;;;;;5.20;87.37;97942.31;6232822;28;20231;-89
2023/05/28 03:21:41;;;;;;;4.70;2.93;;;;;;;4.97;87.42;97908.34;6211107;28;20230;-90
2023/05/28 03:24:45;;;;;;;3.90;2.83;;;;;;;4.04;87.39;97784.09;6213360;28;20269;-90
2023/05/28 03:27:47;;;;;;;5.57;2.60;;;;;;;2.93;87.20;97646.44;6195837;28;20704;-90
2023/05/28 03:30:50;;;;;;;5.20;3.10;;;;;;;4.48;87.75;97854.81;6211396;28;20243;-90
2023/05/28 03:33:53;;;;;;;4.67;2.83;;;;;;;3.70;87.12;97711.22;6209452;28;20226;-90
2023/05/28 03:36:55;;;;;;;5.77;2.93;;;;;;;4.26;87.73;97808.50;6212129;28;20232;-90
2023/05/28 03:39:58;;;;;;;5.30;2.67;;;;;;;5.83;87.47;98044.00;6213643;28;20231;-90
2023/05/28 03:43:01;;;;;;;5.50;2.93;;;;;;;3.72;87.89;97686.28;6229196;28;20249;-90
2023/05/28 03:46:04;;;;;;;4.83;2.80;;;;;;;4.48;87.51;97848.72;6225049;28;20415;-90
2023/05/28 03:49:07;;;;;;;3.90;2.70;;;;;;;5.82;87.91;98033.66;6210820;28;20242;-90
2023/05/28 03:52:10;;;;;;;3.93;2.67;;;;;;;4.04;87.80;97748.03;6211572;28;20225;-89
2023/05/28 03:55:22;;;;;;;5.00;2.87;;;;;;;4.83;87.82;97850.25;6209121;28;20243;-90
2023/05/28 03:58:24;;;;;;;5.97;3.07;;;;;;;4.01;88.21;97735.22;6210882;28;20227;-89
2023/05/28 04:01:26;;;;;;;6.37;3.00;;;;;;;5.90;88.26;98028.13;6213342;28;20247;-90
2023/05/28 04:04:29;;;;;;;5.97;2.60;;;;;;;3.90;88.14;97688.38;6211690;28;20713;-90
2023/05/28 04:07:31;;;;;;;4.20;2.57;;;;;;;4.35;88.02;97783.59;6212740;28;20228;-90
2023/05/28 04:10:34;;;;;;;4.80;2.97;;;;;;;5.07;88.17;97904.28;6228725;28;20240;-89
2023/05/28 04:13:36;;;;;;;3.20;2.67;;;;;;;4.97;88.26;97840.50;6234733;28;20231;-90
2023/05/28 04:16:39;;;;;;;5.10;2.93;;;;;;;4.57;88.18;97769.22;6211393;28;20232;-89
2023/05/28 04:19:42;;;;;;;9.57;4.87;;;;;;;5.05;88.46;97863.28;6228480;28;20778;-90
2023/05/28 04:22:44;;;;;;;12.33;6.90;;;;;;;4.96;88.68;97869.75;6236929;28;20245;-90
2023/05/28 04:25:47;;;;;;;12.20;6.77;;;;;;;4.16;88.57;97718.44;6214939;28;20480;-90
2023/05/28 04:28:50;;;;;;;11.07;6.40;;;;;;;5.41;88.84;97913.06;6209470;28;20260;-90
2023/05/28 04:31:53;;;;;;;9.70;6.17;;;;;;;4.33;88.80;97712.56;6227083;28;20233;-91
2023/05/28 04:34:56;;;;;;;8.00;5.17;;;;;;;4.66;89.03;97746.09;6215308;28;20230;-91
2023/05/28 04:37:59;;;;;;;10.53;6.03;;;;;;;6.30;89.18;98002.50;6227266;28;20225;-90
2023/05/28 04:41:04;;;;;;;8.30;4.50;;;;;;;2.78;88.68;97457.97;6216178;28;20395;-90
2023/05/28 04:44:15;;;;;;;7.10;4.20;;;;;;;4.21;89.63;97674.63;6226721;28;20306;-90
2023/05/28 04:47:18;;;;;;;6.20;3.83;;;;;;;6.40;89.42;98010.84;6231433;28;20595;-90
2023/05/28 04:50:22;;;;;;;6.87;3.97;;;;;;;5.13;89.33;97828.75;6214283;28;20292;-90
2023/05/28 04:53:25;;;;;;;4.27;3.30;;;;;;;5.36;89.30;97846.81;6212183;28;20245;-89
2023/05/28 04:56:38;;;;;;;6.90;3.60;;;;;;;4.56;89.23;97719.28;6215038;28;20270;-90
2023/05/28 04:59:52;;;;;;;4.77;3.07;;;;;;;5.13;89.11;97795.25;6211003;28;20618;-90
2023/05/28 05:02:54;;;;;;;7.03;3.63;;;;;;;5.59;89.77;97863.06;6209648;28;20740;-90
2023/05/28 05:05:58;;;;;;;8.27;3.60;;;;;;;5.74;89.48;97877.88;6198808;28;20317;-90
2023/05/28 05:09:00;;;;;;;6.23;3.40;;;;;;;5.24;89.69;97800.91;6210069;28;20237;-90
2023/05/28 05:12:03;;;;;;;8.20;3.83;;;;;;;5.09;89.73;97745.69;6213102;28;20329;-90
2023/05/28 05:15:07;;;;;;;5.13;3.53;;;;;;;5.57;89.77;97811.44;6207667;28;20691;-90
2023/05/28 05:18:18;;;;;;;7.87;4.70;;;;;;;5.63;89.60;97800.03;6229017;28;20205;-90
2023/05/28 05:21:44;;;;;;;15.70;8.10;;;;;;;6.35;89.91;97915.38;6213993;28;20756;-90
2023/05/28 05:24:48;;;;;;;8.53;6.37;;;;;;;6.45;89.51;97905.19;6213952;28;20711;-90
2023/05/28 05:27:51;;;;;;;9.47;6.27;;;;;;;5.92;89.86;97812.78;6226836;28;20576;-90
2023/05/28 05:30:53;;;;;;;9.07;4.80;;;;;;;5.77;89.58;97785.78;6199403;28;20297;-91
2023/05/28 05:33:56;;;;;;;7.93;4.83;;;;;;;5.52;89.48;97697.63;6224184;28;20241;-89
2023/05/28 05:37:17;;;;;;;15.67;7.20;;;;;;;6.12;89.53;97818.00;6225284;28;20589;-91
2023/05/28 05:40:38;;;;;;;10.90;6.30;;;;;;;7.08;89.64;97875.31;6201390;28;20232;-92
2023/05/28 05:43:55;;;;;;;13.33;8.37;;;;;;;7.85;87.70;97950.16;6205683;28;20243;-86
2023/05/28 05:46:58;;;;;;;9.50;6.03;;;;;;;7.99;81.74;97895.16;6206138;28;20225;-82
2023/05/28 05:50:03;;;;;;;16.13;6.27;;;;;;;8.72;78.67;97911.09;6203976;28;20228;-84
2023/05/28 05:53:06;;;;;;;6.70;3.63;;;;;;;9.54;75.48;97977.81;6226244;28;20226;-84
2023/05/28 05:56:09;;;;;;;7.07;3.60;;;;;;;9.42;72.21;97893.75;6224646;28;20220;-82
2023/05/28 05:59:11;;;;;;;6.30;3.07;;;;;;;10.03;72.38;97956.34;6205156;28;20380;-83
2023/05/28 06:02:14;;;;;;;6.17;3.70;;;;;;;10.38;68.14;97943.06;6210367;28;20222;-84
2023/05/28 06:05:27;;;;;;;6.07;2.90;;;;;;;10.78;67.27;97966.25;6206290;28;20230;-83
2023/05/28 06:09:19;;;;;;;7.30;3.30;;;;;;;10.71;65.88;97910.44;6199329;28;20238;-84
2023/05/28 06:12:52;;;;;;;5.00;2.60;;;;;;;11.25;67.71;97984.78;6194185;28;20239;-85
2023/05/28 06:16:07;;;;;;;5.30;3.70;;;;;;;10.63;64.82;97886.03;6210116;28;20298;-84
2023/05/28 06:19:21;;;;;;;4.67;2.80;;;;;;;10.79;65.37;97890.63;6192463;28;20236;-83
2023/05/28 06:22:23;;;;;;;4.33;3.17;;;;;;;11.00;66.76;97899.78;6211847;28;20263;-83
2023/05/28 06:25:27;;;;;;;3.87;2.57;;;;;;;10.80;67.63;97857.59;6212743;28;20587;-84
2023/05/28 06:28:31;;;;;;;6.20;2.70;;;;;;;11.08;68.07;97886.91;6210368;28;20234;-86
2023/05/28 06:31:35;;;;;;;5.10;2.70;;;;;;;11.45;68.20;97928.31;6216491;28;20227;-90
2023/05/28 06:34:41;;;;;;;4.40;3.00;;;;;;;11.78;69.67;97956.88;6183592;28;20251;-84
2023/05/28 06:37:43;;;;;;;3.80;2.60;;;;;;;11.84;70.24;97934.59;6200292;28;20536;-84
2023/05/28 06:40:46;;;;;;;4.03;2.60;;;;;;;12.04;70.82;97926.06;6210867;28;20586;-84
2023/05/28 06:43:49;;;;;;;5.00;2.47;;;;;;;12.00;70.91;97914.25;6216335;28;20247;-84
2023/05/28 06:47:16;;;;;;;3.73;2.60;;;;;;;12.58;70.47;97985.06;6213222;28;20237;-88
2023/05/28 06:50:30;;;;;;;3.53;2.63;;;;;;;12.69;69.78;97986.00;6208842;28;20295;-84
2023/05/28 06:53:34;;;;;;;4.37;2.47;;;;;;;12.20;68.41;97898.53;6214925;28;20239;-85
2023/05/28 06:56:37;;;;;;;3.40;2.40;;;;;;;12.81;68.09;97982.16;6197936;28;20231;-84
2023/05/28 06:59:58;;;;;;;3.53;2.50;;;;;;;12.53;68.11;97927.00;6208767;28;20245;-84
2023/05/28 07:03:27;;;;;;;3.50;2.70;;;;;;;12.47;68.64;97895.13;6213058;28;20247;-85
2023/05/28 07:06:46;;;;;;;3.63;2.50;;;;;;;12.74;68.38;97933.41;6194760;28;20237;-84
2023/05/28 07:10:05;;;;;;;7.00;2.93;;;;;;;13.04;68.86;97954.34;6203649;28;20252;-86
2023/05/28 07:13:08;;;;;;;5.20;2.70;;;;;;;13.30;67.95;97981.38;6216791;28;20251;-85
2023/05/28 07:16:11;;;;;;;4.57;2.97;;;;;;;13.56;66.29;97985.16;6220193;28;20232;-85
2023/05/28 07:19:14;;;;;;;3.07;2.20;;;;;;;13.51;66.59;97951.13;6214576;28;20235;-84
2023/05/28 07:22:18;;;;;;;5.37;2.47;;;;;;;12.59;66.13;97789.72;6215976;28;20232;-85
2023/05/28 07:25:21;;;;;;;3.77;2.57;;;;;;;13.96;66.61;97982.00;6211957;28;20281;-85
2023/05/28 07:28:25;;;;;;;4.87;2.60;;;;;;;13.54;66.29;97893.56;6224706;28;20377;-85
2023/05/28 07:31:31;;;;;;;4.13;2.90;;;;;;;14.10;65.74;97963.63;6213840;28;20258;-85
2023/05/28 07:34:35;;;;;;;4.27;3.10;;;;;;;14.31;64.88;97994.84;6213993;28;20228;-84
2023/05/28 07:37:38;;;;;;;5.70;2.70;;;;;;;14.36;64.97;97988.72;6200667;28;20243;-86
2023/05/28 07:40:42;;;;;;;4.20;3.03;;;;;;;14.29;62.95;97945.28;6225057;28;20216;-91
2023/05/28 07:43:55;;;;;;;5.47;3.17;;;;;;;14.01;60.02;97866.88;6203391;28;20236;-86
2023/05/28 07:47:01;;;;;;;6.77;3.37;;;;;;;14.47;59.55;97904.63;6213469;28;20239;-87
2023/05/28 07:50:22;;;;;;;5.27;3.00;;;;;;;15.02;59.11;97958.75;6225363;28;20228;-86
2023/05/28 07:53:45;;;;;;;6.30;3.40;;;;;;;15.22;57.45;97964.19;6211040;28;20386;-87
2023/05/28 07:56:56;;;;;;;6.80;3.10;;;;;;;15.08;58.88;97934.38;6209402;28;20240;-85
2023/05/28 08:00:12;;;;;;;5.13;3.00;;;;;;;14.18;55.61;97756.84;6224394;28;20318;-88
2023/05/28 08:03:29;;;;;;;5.77;2.90;;;;;;;15.25;56.41;97906.50;6231563;28;20225;-87
2023/05/28 08:06:37;;;;;;;6.13;3.23;;;;;;;15.34;53.88;97915.66;6226221;28;20232;-87
2023/05/28 08:09:44;;;;;;;8.90;3.13;;;;;;;15.20;55.93;97873.22;6233746;28;20275;-87
2023/05/28 08:12:50;;;;;;;5.73;2.70;;;;;;;15.50;54.27;97898.47;6222458;28;20247;-86
2023/05/28 08:15:58;;;;;;;6.03;3.30;;;;;;;15.86;57.76;97944.16;6230693;28;20392;-87
2023/05/28 08:19:15;;;;;;;5.70;3.00;;;;;;;15.72;57.22;97919.75;6221793;28;20453;-86
2023/05/28 08:22:22;;;;;;;3.37;2.53;;;;;;;16.11;57.73;97951.41;6213519;28;20728;-85
2023/05/28 08:25:24;;;;;;;6.87;3.30;;;;;;;16.15;51.85;97933.66;6229016;28;20250;-85
2023/05/28 08:28:35;;;;;;;5.70;3.50;;;;;;;16.22;50.75;97931.50;6220534;28;20282;-85
2023/05/28 08:31:41;;;;;;;5.57;3.03;;;;;;;16.14;50.00;97905.16;6213558;28;20278;-86
2023/05/28 08:34:59;;;;;;;7.33;3.70;;;;;;;16.21;52.28;97897.66;6225001;28;20271;-85
2023/05/28 08:38:02;;;;;;;7.20;3.30;;;;;;;16.24;50.44;97903.25;6193886;28;20290;-87
2023/05/28 08:41:12;;;;;;;4.93;2.43;;;;;;;16.46;50.48;97924.44;6227097;28;20229;-85
2023/05/28 08:44:14;;;;;;;7.10;3.47;;;;;;;16.79;52.44;97938.34;6225943;28;20264;-86
2023/05/28 08:47:18;;;;;;;8.33;3.47;;;;;;;16.86;50.17;97938.88;6223987;28;20259;-86
2023/05/28 08:50:41;;;;;;;9.07;3.53;;;;;;;16.82;49.30;97915.47;6212948;28;20236;-85
2023/05/28 08:53:51;;;;;;;6.80;3.50;;;;;;;16.37;48.15;97858.88;6210726;28;20269;-86
2023/05/28 08:56:59;;;;;;;8.43;3.93;;;;;;;16.96;48.07;97941.50;6222007;28;20232;-85
2023/05/28 09:00:08;;;;;;;7.17;3.20;;;;;;;16.66;48.02;97896.69;6230552;28;20852;-85
2023/05/28 09:03:32;;;;;;;7.43;3.53;;;;;;;17.02;49.01;97928.81;6211605;28;20708;-85
2023/05/28 09:06:41;;;;;;;6.87;3.20;;;;;;;16.82;48.23;97877.81;6209587;28;20648;-85
2023/05/28 09:09:52;;;;;;;6.13;3.50;;;;;;;17.31;48.67;97934.31;6222384;28;20720;-85
2023/05/28 09:12:59;;;;;;;6.60;3.60;;;;;;;17.67;48.92;97947.53;6220324;28;20264;-85
2023/05/28 09:16:02;;;;;;;7.00;3.70;;;;;;;17.31;47.31;97902.00;6222615;28;20229;-85
2023/05/28 09:19:05;;;;;;;5.37;3.40;;;;;;;17.67;46.80;97948.34;6207816;28;20575;-84
2023/05/28 09:22:13;;;;;;;6.93;3.70;;;;;;;17.05;47.37;97857.50;6214099;28;20264;-85
2023/05/28 09:25:32;;;;;;;7.77;3.43;;;;;;;17.38;47.41;97913.25;6224745;28;20277;-85
2023/05/28 09:28:54;;;;;;;7.90;3.30;;;;;;;17.54;47.52;97944.41;6224358;28;20231;-84
2023/05/28 09:31:58;;;;;;;4.73;3.50;;;;;;;16.73;48.33;97821.06;6212973;28;20580;-87
2023/05/28 09:35:01;;;;;;;6.20;3.30;;;;;;;17.63;47.70;97941.09;6214754;28;20239;-84
2023/05/28 09:38:10;;;;;;;4.13;3.03;;;;;;;17.70;49.07;97931.63;6208162;28;20736;-86
2023/05/28 09:41:22;;;;;;;5.50;3.40;;;;;;;17.92;47.81;97919.59;6223618;28;20236;-86
2023/05/28 09:44:30;;;;;;;6.60;3.33;;;;;;;17.88;47.93;97905.06;6236560;28;20227;-86
2023/05/28 09:47:32;;;;;;;6.23;3.50;;;;;;;17.80;47.73;97858.00;6202939;28;20228;-84
2023/05/28 09:50:36;;;;;;;5.37;3.60;;;;;;;18.17;46.49;97924.75;6198227;28;20326;-85
2023/05/28 09:53:44;;;;;;;4.07;3.10;;;;;;;18.18;47.37;97899.41;6217622;28;20224;-84
2023/05/28 09:56:51;;;;;;;5.30;3.07;;;;;;;18.15;47.14;97905.38;6219638;28;20219;-85
2023/05/28 09:59:55;;;;;;;4.83;3.23;;;;;;;17.82;48.64;97852.31;6217049;28;20239;-85
2023/05/28 10:03:11;;;;;;;5.03;3.00;;;;;;;17.87;48.35;97854.97;6231465;28;20358;-85
2023/05/28 10:06:18;;;;;;;4.87;2.80;;;;;;;17.41;51.47;97758.38;6212382;28;20233;-84
2023/05/28 10:09:21;;;;;;;6.60;3.17;;;;;;;17.95;54.13;97862.44;6234681;28;20525;-86
2023/05/28 10:12:30;;;;;;;5.67;3.33;;;;;;;18.48;47.59;97900.16;6228242;28;20236;-85
2023/05/28 10:15:33;;;;;;;7.53;3.90;;;;;;;18.30;47.66;97869.34;6225697;28;20236;-85
2023/05/28 10:18:36;;;;;;;7.67;3.97;;;;;;;18.08;48.85;97807.84;6211805;28;20218;-85
2023/05/28 10:21:42;;;;;;;9.33;3.67;;;;;;;18.75;45.56;97897.69;6229977;28;20232;-86
2023/05/28 10:24:46;;;;;;;9.03;3.90;;;;;;;18.20;45.66;97832.50;6211906;28;20281;-84
2023/05/28 10:27:48;;;;;;;7.23;3.60;;;;;;;18.69;47.93;97888.06;6212955;28;20654;-86
2023/05/28 10:31:04;;;;;;;4.80;3.33;;;;;;;17.98;45.47;97781.81;6185081;28;20224;-86
2023/05/28 10:34:16;;;;;;;5.60;3.60;;;;;;;18.73;45.79;97872.91;6225855;28;20216;-86
2023/05/28 10:37:23;;;;;;;5.93;3.47;;;;;;;18.56;44.60;97832.84;6209103;28;20232;-85
2023/05/28 10:40:26;;;;;;;6.97;3.67;;;;;;;18.91;44.86;97900.19;6214816;28;20225;-85
2023/05/28 10:43:40;;;;;;;7.13;4.23;;;;;;;19.21;43.67;97890.84;6210927;28;20243;-84
2023/05/28 10:46:55;;;;;;;5.50;3.40;;;;;;;18.86;44.20;97830.06;6215015;28;20310;-86
2023/05/28 10:50:00;;;;;;;7.63;3.63;;;;;;;18.97;44.34;97853.94;6217305;28;20315;-86
2023/05/28 10:53:10;;;;;;;7.90;3.57;;;;;;;19.03;44.63;97852.78;6217465;28;20669;-86
2023/05/28 10:56:16;;;;;;;8.40;3.80;;;;;;;18.72;43.61;97813.81;6208283;28;20220;-87
2023/05/28 10:59:37;;;;;;;9.03;4.40;;;;;;;18.37;43.69;97748.41;6227947;28;20236;-86
2023/05/28 11:02:44;;;;;;;7.40;4.00;;;;;;;19.31;44.71;97894.25;6232193;28;20746;-86
2023/05/28 11:05:47;;;;;;;9.70;4.40;;;;;;;18.87;45.96;97820.91;6229604;28;20931;-88
2023/05/28 11:08:50;;;;;;;7.73;4.37;;;;;;;18.99;44.10;97826.66;6226580;28;20243;-86
2023/05/28 11:11:53;;;;;;;7.20;4.37;;;;;;;18.67;44.68;97759.88;6199969;28;20248;-87
2023/05/28 11:14:56;;;;;;;6.27;3.80;;;;;;;18.28;43.51;97691.66;6211325;28;20311;-86
2023/05/28 11:17:59;;;;;;;8.47;4.20;;;;;;;18.48;43.17;97738.31;6214511;28;21072;-86
2023/05/28 11:21:12;;;;;;;7.17;3.87;;;;;;;19.14;44.92;97826.41;6196080;28;20236;-86
2023/05/28 11:24:16;;;;;;;7.20;4.13;;;;;;;19.66;44.07;97894.00;6193189;28;20627;-86
2023/05/28 11:27:20;;;;;;;8.33;4.37;;;;;;;19.00;43.60;97769.66;6213571;28;20213;-86
2023/05/28 11:30:24;;;;;;;7.50;4.30;;;;;;;19.52;43.43;97839.88;6199531;28;20227;-85
2023/05/28 11:33:27;;;;;;;10.17;4.47;;;;;;;19.63;42.28;97857.56;6209382;28;20318;-85
2023/05/28 11:36:30;;;;;;;10.80;4.50;;;;;;;18.34;42.68;97651.91;6208853;28;20353;-86
2023/05/28 11:39:34;;;;;;;5.57;3.93;;;;;;;19.80;43.78;97874.03;6213894;28;20246;-85
2023/05/28 11:42:39;;;;;;;8.73;4.30;;;;;;;19.92;43.44;97872.75;6191195;28;20290;-86
2023/05/28 11:45:41;;;;;;;5.20;3.50;;;;;;;19.54;42.69;97822.25;6197843;28;20234;-86
2023/05/28 11:48:45;;;;;;;7.93;5.03;;;;;;;19.68;40.79;97818.81;6197460;28;20742;-87
2023/05/28 11:51:53;;;;;;;6.17;3.90;;;;;;;19.96;42.22;97842.09;6214856;28;20577;-85
2023/05/28 11:55:01;;;;;;;8.63;4.67;;;;;;;19.95;41.63;97864.00;6199218;28;20366;-84
2023/05/28 11:58:03;;;;;;;9.43;4.20;;;;;;;19.81;41.28;97821.56;6195687;28;20230;-85
2023/05/28 12:01:14;;;;;;;8.27;4.07;;;;;;;20.00;40.18;97850.41;6210269;28;20313;-85
2023/05/28 12:04:27;;;;;;;7.63;4.00;;;;;;;20.31;41.02;97859.56;6207010;28;20598;-84
2023/05/28 12:07:35;;;;;;;6.37;4.07;;;;;;;19.93;40.92;97779.69;6189574;28;20233;-86
2023/05/28 12:10:37;;;;;;;7.10;3.87;;;;;;;20.40;40.49;97842.63;6219478;28;20236;-85
2023/05/28 12:13:40;;;;;;;6.90;4.43;;;;;;;20.41;39.12;97860.47;6212348;28;20374;-84
2023/05/28 12:16:46;;;;;;;7.53;3.90;;;;;;;20.17;40.45;97784.91;6214382;28;20232;-85
2023/05/28 12:19:48;;;;;;;7.27;4.20;;;;;;;20.44;39.29;97806.50;6212720;28;20708;-84
2023/05/28 12:23:06;;;;;;;7.63;4.27;;;;;;;20.92;39.42;97862.91;6231697;28;20252;-85
2023/05/28 12:26:12;;;;;;;8.80;4.13;;;;;;;20.76;36.79;97840.00;6212073;28;20236;-85
2023/05/28 12:29:15;;;;;;;7.13;3.63;;;;;;;20.94;38.39;97858.03;6227665;28;20311;-85
2023/05/28 12:32:19;;;;;;;8.20;4.30;;;;;;;20.83;38.05;97805.97;6214120;28;20234;-85
2023/05/28 12:35:21;;;;;;;7.73;4.13;;;;;;;21.09;38.00;97844.13;6228125;28;20322;-85
2023/05/28 12:38:23;;;;;;;6.90;4.07;;;;;;;21.02;38.51;97805.00;6213645;28;20766;-87
2023/05/28 12:41:27;;;;;;;6.53;3.97;;;;;;;20.79;37.86;97783.34;6213531;28;20251;-86
2023/05/28 12:44:30;;;;;;;8.27;4.13;;;;;;;20.84;39.51;97783.22;6197207;28;20239;-86
2023/05/28 12:47:34;;;;;;;6.60;3.53;;;;;;;20.64;40.15;97766.63;6218809;28;20236;-87
2023/05/28 12:50:37;;;;;;;10.90;4.53;;;;;;;20.85;38.29;97803.78;6226984;28;20229;-87
2023/05/28 12:53:40;;;;;;;6.37;4.30;;;;;;;20.83;38.64;97834.97;6229042;28;20848;-89
2023/05/28 12:56:43;;;;;;;5.73;3.73;;;;;;;20.77;39.99;97825.34;6207464;28;20771;-88
2023/05/28 12:59:48;;;;;;;7.43;4.83;;;;;;;20.60;37.53;97797.03;6222570;28;20235;-90
2023/05/28 13:02:51;;;;;;;6.73;4.43;;;;;;;20.55;38.22;97796.34;6213800;28;20293;-87
2023/05/28 13:05:53;;;;;;;6.93;4.10;;;;;;;20.54;39.09;97797.41;6226955;28;20225;-88
2023/05/28 13:08:58;;;;;;;7.83;4.10;;;;;;;20.67;41.38;97812.84;6230965;28;20307;-87
2023/05/28 13:12:01;;;;;;;8.80;3.93;;;;;;;19.72;39.76;97669.25;6191756;28;20232;-89
2023/05/28 13:15:05;;;;;;;10.57;4.40;;;;;;;20.51;39.57;97781.81;6197680;28;20645;-87
2023/05/28 13:18:08;;;;;;;7.77;5.00;;;;;;;19.62;40.41;97638.94;6212883;28;20299;-88
2023/05/28 13:21:10;;;;;;;8.33;4.50;;;;;;;20.30;38.39;97725.38;6195201;28;20230;-89
2023/05/28 13:24:13;;;;;;;9.10;4.53;;;;;;;20.72;38.88;97807.31;6213361;28;20679;-83
2023/05/28 13:27:16;;;;;;;7.83;4.27;;;;;;;20.48;39.06;97769.66;6205789;28;20211;-85
2023/05/28 13:30:19;;;;;;;5.47;4.10;;;;;;;20.31;38.53;97745.13;6188261;28;20693;-86
2023/05/28 13:33:22;;;;;;;6.80;4.33;;;;;;;20.93;36.83;97821.19;6212614;28;20231;-86
2023/05/28 13:36:25;;;;;;;7.83;4.57;;;;;;;20.80;38.52;97798.47;6192827;28;20232;-85
2023/05/28 13:39:27;;;;;;;8.73;4.67;;;;;;;20.75;38.51;97785.06;6187853;28;20232;-86
2023/05/28 13:42:30;;;;;;;7.47;4.73;;;;;;;20.14;37.91;97701.66;6193819;28;20653;-86
2023/05/28 13:45:32;;;;;;;9.00;4.40;;;;;;;20.57;39.80;97759.72;6212200;28;20319;-86
2023/05/28 13:48:35;;;;;;;7.17;4.80;;;;;;;20.38;39.02;97731.97;6195916;28;20223;-86
2023/05/28 13:51:41;;;;;;;9.20;4.30;;;;;;;20.63;40.74;97752.28;6173316;28;20313;-86
2023/05/28 13:54:44;;;;;;;8.63;4.40;;;;;;;19.46;37.10;97571.69;6198281;28;20405;-86
2023/05/28 13:57:46;;;;;;;7.53;4.37;;;;;;;20.55;38.43;97734.88;6211939;28;20325;-86
2023/05/28 14:00:49;;;;;;;9.43;4.10;;;;;;;19.72;39.51;97592.78;6212008;28;20248;-86
2023/05/28 14:03:52;;;;;;;9.77;4.20;;;;;;;20.35;39.96;97697.41;6198434;28;20294;-89
2023/05/28 14:06:55;;;;;;;7.00;4.17;;;;;;;20.93;40.46;97785.19;6206937;28;20381;-84
2023/05/28 14:09:57;;;;;;;10.60;4.83;;;;;;;20.99;39.76;97783.97;6196168;28;20547;-85
2023/05/28 14:12:59;;;;;;;9.77;4.17;;;;;;;20.99;41.87;97790.19;6227165;28;20530;-85
2023/05/28 14:16:02;;;;;;;34.90;6.07;;;;;;;20.91;45.60;97782.78;6209574;28;20243;-85
2023/05/28 14:19:07;;;;;;;7.23;4.30;;;;;;;20.78;44.22;97776.31;6226895;28;20383;-86
2023/05/28 14:22:10;;;;;;;7.97;4.10;;;;;;;20.68;42.92;97767.63;6209607;28;20240;-84
2023/05/28 14:25:13;;;;;;;6.03;3.90;;;;;;;20.34;43.99;97706.63;6206020;28;20263;-86
2023/05/28 14:28:15;;;;;;;6.30;3.50;;;;;;;19.74;44.83;97640.03;6210639;28;20629;-86
2023/05/28 14:31:17;;;;;;;8.57;4.60;;;;;;;19.73;42.20;97568.16;6229196;28;20602;-86
2023/05/28 14:34:20;;;;;;;9.33;4.73;;;;;;;20.15;40.58;97658.09;6229820;28;20700;-86
2023/05/28 14:37:22;;;;;;;10.77;5.33;;;;;;;19.50;40.63;97569.16;6232159;28;20246;-86
2023/05/28 14:40:24;;;;;;;7.23;4.87;;;;;;;20.72;41.64;97753.16;6233312;28;20346;-85